sensor_id;sensor_type;location;lat;lon;timestamp;pressure;altitude;pressure_sealevel;temperature;humidity
3590;BME280;1809;48.470;9.226;2023-12-20T00:00:08;130811.06;;;6.36;100.00
3590;BME280;1809;48.470;9.226;2023-12-20T00:02:33;129465.09;;;6.48;100.00
3590;BME280;1809;48.470;9.226;2023-12-20T00:04:59;127410.66;;;6.51;100.00
3590;BME280;1809;48.470;9.226;2023-12-20T00:07:24;125720.97;;;6.63;100.00
3590;BME280;1809;48.470;9.226;2023-12-20T00:09:50;122323.72;;;6.78;100.00
3590;BME280;1809;48.470;9.226;2023-12-20T00:12:15;117553.75;;;6.90;100.00
3590;BME280;1809;48.470;9.226;2023-12-20T00:14:40;110019.72;;;6.84;100.00
3590;BME280;1809;48.470;9.226;2023-12-20T00:17:06;104890.34;;;6.78;100.00
3590;BME280;1809;48.470;9.226;2023-12-20T00:19:31;102852.66;;;6.82;100.00
3590;BME280;1809;48.470;9.226;2023-12-20T00:21:57;101156.56;;;6.87;100.00
3590;BME280;1809;48.470;9.226;2023-12-20T00:24:22;98455.00;;;7.01;100.00
3590;BME280;1809;48.470;9.226;2023-12-20T00:26:47;93351.53;;;7.01;100.00
3590;BME280;1809;48.470;9.226;2023-12-20T00:29:13;90284.94;;;6.95;100.00
3590;BME280;1809;48.470;9.226;2023-12-20T00:31:38;88914.19;;;6.87;100.00
3590;BME280;1809;48.470;9.226;2023-12-20T00:34:04;89260.25;;;6.91;100.00
3590;BME280;1809;48.470;9.226;2023-12-20T00:36:29;88569.63;;;6.83;100.00
3590;BME280;1809;48.470;9.226;2023-12-20T00:38:54;90619.38;;;6.92;100.00
3590;BME280;1809;48.470;9.226;2023-12-20T00:41:20;91650.56;;;7.00;100.00
3590;BME280;1809;48.470;9.226;2023-12-20T00:43:45;92667.09;;;6.98;100.00
3590;BME280;1809;48.470;9.226;2023-12-20T00:46:11;93671.53;;;6.88;100.00
3590;BME280;1809;48.470;9.226;2023-12-20T00:48:36;95048.75;;;6.99;100.00
3590;BME280;1809;48.470;9.226;2023-12-20T00:51:02;94019.22;;;6.93;100.00
3590;BME280;1809;48.470;9.226;2023-12-20T00:53:29;93000.91;;;6.94;100.00
3590;BME280;1809;48.470;9.226;2023-12-20T00:55:54;93325.47;;;6.84;100.00
3590;BME280;1809;48.470;9.226;2023-12-20T00:58:20;95036.25;;;6.91;100.00
3590;BME280;1809;48.470;9.226;2023-12-20T01:00:45;96037.66;;;6.79;100.00
3590;BME280;1809;48.470;9.226;2023-12-20T01:03:12;98081.41;;;6.80;100.00
3590;BME280;1809;48.470;9.226;2023-12-20T01:05:37;99771.13;;;6.73;100.00
3590;BME280;1809;48.470;9.226;2023-12-20T01:08:03;101817.81;;;6.75;100.00
3590;BME280;1809;48.470;9.226;2023-12-20T01:10:28;103511.31;;;6.69;100.00
3590;BME280;1809;48.470;9.226;2023-12-20T01:12:55;104535.56;;;6.70;100.00
3590;BME280;1809;48.470;9.226;2023-12-20T01:15:20;104218.75;;;6.84;100.00
3590;BME280;1809;48.470;9.226;2023-12-20T01:17:47;99121.31;;;6.92;100.00
3590;BME280;1809;48.470;9.226;2023-12-20T01:20:14;90620.88;;;6.93;100.00
3590;BME280;1809;48.470;9.226;2023-12-20T01:22:55;81109.97;;;6.83;100.00
3590;BME280;1809;48.470;9.226;2023-12-20T01:25:21;76006.16;;;6.61;100.00
3590;BME280;1809;48.470;9.226;2023-12-20T01:27:46;73307.00;;;6.64;100.00
3590;BME280;1809;48.470;9.226;2023-12-20T01:30:12;72620.78;;;6.55;100.00
3590;BME280;1809;48.470;9.226;2023-12-20T01:32:37;73650.28;;;6.69;100.00
3590;BME280;1809;48.470;9.226;2023-12-20T01:35:03;70941.47;;;6.63;100.00
3590;BME280;1809;48.470;9.226;2023-12-20T01:37:29;69934.63;;;6.68;100.00
3590;BME280;1809;48.470;9.226;2023-12-20T01:39:54;68572.63;;;6.57;100.00
3590;BME280;1809;48.470;9.226;2023-12-20T01:42:24;71614.31;;;6.61;100.00
3590;BME280;1809;48.470;9.226;2023-12-20T01:44:49;72613.06;;;6.48;100.00
3590;BME280;1809;48.470;9.226;2023-12-20T01:47:15;76334.25;;;6.53;100.00
3590;BME280;1809;48.470;9.226;2023-12-20T01:49:41;80715.03;;;6.40;100.00
3590;BME280;1809;48.470;9.226;2023-12-20T01:52:09;88835.28;;;6.32;100.00
3590;BME280;1809;48.470;9.226;2023-12-20T01:54:35;96639.19;;;6.29;100.00
3590;BME280;1809;48.470;9.226;2023-12-20T01:57:01;102399.53;;;6.15;100.00
3590;BME280;1809;48.470;9.226;2023-12-20T01:59:28;107155.88;;;6.08;100.00
3590;BME280;1809;48.470;9.226;2023-12-20T02:01:55;110885.81;;;5.97;100.00
3590;BME280;1809;48.470;9.226;2023-12-20T02:04:20;114284.44;;;5.89;100.00
3590;BME280;1809;48.470;9.226;2023-12-20T02:06:46;118721.59;;;5.87;100.00
3590;BME280;1809;48.470;9.226;2023-12-20T02:09:12;123534.97;;;5.99;100.00
3590;BME280;1809;48.470;9.226;2023-12-20T02:11:38;125917.69;;;5.92;100.00
3590;BME280;1809;48.470;9.226;2023-12-20T02:14:03;128657.06;;;5.91;100.00
3590;BME280;1809;48.470;9.226;2023-12-20T02:16:30;131030.34;;;5.78;100.00
3590;BME280;1809;48.470;9.226;2023-12-20T02:18:55;132730.19;;;5.71;100.00
3590;BME280;1809;48.470;9.226;2023-12-20T02:21:33;134792.75;;;5.73;100.00
3590;BME280;1809;48.470;9.226;2023-12-20T02:24:02;136156.03;;;5.68;100.00
3590;BME280;1809;48.470;9.226;2023-12-20T02:26:27;137876.91;;;5.70;100.00
3590;BME280;1809;48.470;9.226;2023-12-20T02:28:53;138900.91;;;5.67;100.00
3590;BME280;1809;48.470;9.226;2023-12-20T02:31:21;140289.88;;;5.73;100.00
3590;BME280;1809;48.470;9.226;2023-12-20T02:33:47;140612.66;;;5.64;100.00
3590;BME280;1809;48.470;9.226;2023-12-20T02:36:13;141639.56;;;5.62;100.00
3590;BME280;1809;48.470;9.226;2023-12-20T02:38:38;142334.53;;;5.65;100.00
3590;BME280;1809;48.470;9.226;2023-12-20T02:41:04;143033.31;;;5.69;100.00
3590;BME280;1809;48.470;9.226;2023-12-20T02:43:29;143382.16;;;5.71;100.00
3590;BME280;1809;48.470;9.226;2023-12-20T02:45:54;143717.94;;;5.68;100.00
3590;BME280;1809;48.470;9.226;2023-12-20T02:48:20;144058.50;;;5.66;100.00
3590;BME280;1809;48.470;9.226;2023-12-20T02:50:47;144781.81;;;5.81;100.00
3590;BME280;1809;48.470;9.226;2023-12-20T02:53:13;144415.91;;;5.72;100.00
3590;BME280;1809;48.470;9.226;2023-12-20T02:55:38;144415.91;;;5.72;100.00
3590;BME280;1809;48.470;9.226;2023-12-20T02:58:05;145126.16;;;5.81;100.00
3590;BME280;1809;48.470;9.226;2023-12-20T03:00:30;144762.56;;;5.73;100.00
3590;BME280;1809;48.470;9.226;2023-12-20T03:02:56;145124.94;;;5.80;100.00
3590;BME280;1809;48.470;9.226;2023-12-20T03:05:22;145118.91;;;5.78;100.00
3590;BME280;1809;48.470;9.226;2023-12-20T03:07:47;145466.88;;;5.79;100.00
3590;BME280;1809;48.470;9.226;2023-12-20T03:10:13;145485.09;;;5.87;100.00
3590;BME280;1809;48.470;9.226;2023-12-20T03:12:38;145482.66;;;5.86;100.00
3590;BME280;1809;48.470;9.226;2023-12-20T03:15:04;145492.34;;;5.90;100.00
3590;BME280;1809;48.470;9.226;2023-12-20T03:17:30;145851.38;;;5.96;100.00
3590;BME280;1809;48.470;9.226;2023-12-20T03:19:55;145487.53;;;5.88;100.00
3590;BME280;1809;48.470;9.226;2023-12-20T03:22:21;145502.06;;;5.94;100.00
3590;BME280;1809;48.470;9.226;2023-12-20T03:24:46;145502.06;;;5.94;100.00
3590;BME280;1809;48.470;9.226;2023-12-20T03:27:12;145488.69;;;5.88;100.00
3590;BME280;1809;48.470;9.226;2023-12-20T03:29:37;145485.09;;;5.87;100.00
3590;BME280;1809;48.470;9.226;2023-12-20T03:32:03;145502.06;;;5.94;100.00
3590;BME280;1809;48.470;9.226;2023-12-20T03:34:28;145126.16;;;5.81;100.00
3590;BME280;1809;48.470;9.226;2023-12-20T03:36:54;145487.53;;;5.88;100.00
3590;BME280;1809;48.470;9.226;2023-12-20T03:39:20;145489.91;;;5.89;100.00
3590;BME280;1809;48.470;9.226;2023-12-20T03:41:45;145497.19;;;5.92;100.00
3590;BME280;1809;48.470;9.226;2023-12-20T03:44:10;145485.09;;;5.87;100.00
3590;BME280;1809;48.470;9.226;2023-12-20T03:46:36;145480.22;;;5.85;100.00
3590;BME280;1809;48.470;9.226;2023-12-20T03:49:01;145831.97;;;5.88;100.00
3590;BME280;1809;48.470;9.226;2023-12-20T03:51:27;145480.22;;;5.85;100.00
3590;BME280;1809;48.470;9.226;2023-12-20T03:53:52;145472.97;;;5.82;100.00
3590;BME280;1809;48.470;9.226;2023-12-20T03:56:18;145806.41;;;5.77;100.00
3590;BME280;1809;48.470;9.226;2023-12-20T03:58:43;145805.19;;;5.77;100.00
3590;BME280;1809;48.470;9.226;2023-12-20T04:01:10;146166.66;;;5.84;100.00
3590;BME280;1809;48.470;9.226;2023-12-20T04:03:39;146166.66;;;5.84;100.00
3590;BME280;1809;48.470;9.226;2023-12-20T04:06:05;146174.00;;;5.87;100.00
3590;BME280;1809;48.470;9.226;2023-12-20T04:08:31;146178.84;;;5.89;100.00
3590;BME280;1809;48.470;9.226;2023-12-20T04:10:57;146159.34;;;5.81;100.00
3590;BME280;1809;48.470;9.226;2023-12-20T04:13:22;145783.38;;;5.68;100.00
3590;BME280;1809;48.470;9.226;2023-12-20T04:15:48;145790.66;;;5.71;100.00
3590;BME280;1809;48.470;9.226;2023-12-20T04:18:15;145410.00;;;5.56;100.00
3590;BME280;1809;48.470;9.226;2023-12-20T04:20:41;145783.38;;;5.68;100.00
3590;BME280;1809;48.470;9.226;2023-12-20T04:23:06;145744.53;;;5.52;100.00
3590;BME280;1809;48.470;9.226;2023-12-20T04:25:32;145744.53;;;5.52;100.00
3590;BME280;1809;48.470;9.226;2023-12-20T04:27:57;146469.66;;;5.67;100.00
3590;BME280;1809;48.470;9.226;2023-12-20T04:30:23;146119.19;;;5.64;100.00
3590;BME280;1809;48.470;9.226;2023-12-20T04:32:48;146107.06;;;5.59;100.00
3590;BME280;1809;48.470;9.226;2023-12-20T04:35:14;146122.88;;;5.66;100.00
3590;BME280;1809;48.470;9.226;2023-12-20T04:37:39;145759.09;;;5.58;100.00
3590;BME280;1809;48.470;9.226;2023-12-20T04:40:05;145750.63;;;5.54;100.00
3590;BME280;1809;48.470;9.226;2023-12-20T04:42:31;145766.38;;;5.61;100.00
3590;BME280;1809;48.470;9.226;2023-12-20T04:44:56;145746.97;;;5.53;100.00
3590;BME280;1809;48.470;9.226;2023-12-20T04:47:22;145737.25;;;5.49;100.00
3590;BME280;1809;48.470;9.226;2023-12-20T04:49:47;145742.13;;;5.51;100.00
3590;BME280;1809;48.470;9.226;2023-12-20T04:52:14;145744.53;;;5.52;100.00
3590;BME280;1809;48.470;9.226;2023-12-20T04:54:39;145729.97;;;5.46;100.00
3590;BME280;1809;48.470;9.226;2023-12-20T04:57:05;146086.41;;;5.51;100.00
3590;BME280;1809;48.470;9.226;2023-12-20T04:59:30;146080.28;;;5.48;100.00
3590;BME280;1809;48.470;9.226;2023-12-20T05:01:56;145725.16;;;5.43;100.00
3590;BME280;1809;48.470;9.226;2023-12-20T05:04:23;145720.31;;;5.41;100.00
3590;BME280;1809;48.470;9.226;2023-12-20T05:06:48;145717.88;;;5.40;100.00
3590;BME280;1809;48.470;9.226;2023-12-20T05:09:15;146094.91;;;5.54;100.00
3590;BME280;1809;48.470;9.226;2023-12-20T05:11:41;146064.50;;;5.41;100.00
3590;BME280;1809;48.470;9.226;2023-12-20T05:14:06;146076.66;;;5.47;100.00
3590;BME280;1809;48.470;9.226;2023-12-20T05:16:32;145702.09;;;5.34;100.00
3590;BME280;1809;48.470;9.226;2023-12-20T05:18:58;145700.88;;;5.33;100.00
3590;BME280;1809;48.470;9.226;2023-12-20T05:21:26;145351.94;;;5.31;100.00
3590;BME280;1809;48.470;9.226;2023-12-20T05:23:52;145715.44;;;5.39;100.00
3590;BME280;1809;48.470;9.226;2023-12-20T05:26:17;145717.88;;;5.40;100.00
3590;BME280;1809;48.470;9.226;2023-12-20T05:28:43;145351.94;;;5.31;100.00
3590;BME280;1809;48.470;9.226;2023-12-20T05:31:08;145354.31;;;5.32;100.00
3590;BME280;1809;48.470;9.226;2023-12-20T05:33:34;145017.53;;;5.35;100.00
3590;BME280;1809;48.470;9.226;2023-12-20T05:35:59;145000.59;;;5.28;100.00
3590;BME280;1809;48.470;9.226;2023-12-20T05:38:25;144660.19;;;5.30;100.00
3590;BME280;1809;48.470;9.226;2023-12-20T05:40:53;145010.22;;;5.32;100.00
3590;BME280;1809;48.470;9.226;2023-12-20T05:43:19;144672.25;;;5.35;100.00
3590;BME280;1809;48.470;9.226;2023-12-20T05:45:45;144675.84;;;5.36;100.00
3590;BME280;1809;48.470;9.226;2023-12-20T05:48:10;144666.19;;;5.32;100.00
3590;BME280;1809;48.470;9.226;2023-12-20T05:50:36;144666.19;;;5.32;100.00
3590;BME280;1809;48.470;9.226;2023-12-20T05:53:02;145029.56;;;5.40;100.00
3590;BME280;1809;48.470;9.226;2023-12-20T05:55:28;144668.59;;;5.33;100.00
3590;BME280;1809;48.470;9.226;2023-12-20T05:57:53;144683.06;;;5.39;100.00
3590;BME280;1809;48.470;9.226;2023-12-20T06:00:19;144671.03;;;5.34;100.00
3590;BME280;1809;48.470;9.226;2023-12-20T06:02:44;144667.41;;;5.33;100.00
3590;BME280;1809;48.470;9.226;2023-12-20T06:05:09;144310.16;;;5.27;100.00
3590;BME280;1809;48.470;9.226;2023-12-20T06:07:35;144311.38;;;5.28;100.00
3590;BME280;1809;48.470;9.226;2023-12-20T06:10:01;144669.81;;;5.34;100.00
3590;BME280;1809;48.470;9.226;2023-12-20T06:12:26;144312.59;;;5.28;100.00
3590;BME280;1809;48.470;9.226;2023-12-20T06:14:54;144307.75;;;5.26;100.00
3590;BME280;1809;48.470;9.226;2023-12-20T06:17:19;144666.19;;;5.32;100.00
3590;BME280;1809;48.470;9.226;2023-12-20T06:19:45;144655.38;;;5.28;100.00
3590;BME280;1809;48.470;9.226;2023-12-20T06:22:14;144643.34;;;5.23;100.00
3590;BME280;1809;48.470;9.226;2023-12-20T06:24:40;144666.19;;;5.32;100.00
3590;BME280;1809;48.470;9.226;2023-12-20T06:27:05;144671.03;;;5.34;100.00
3590;BME280;1809;48.470;9.226;2023-12-20T06:29:31;144658.97;;;5.29;100.00
3590;BME280;1809;48.470;9.226;2023-12-20T06:31:56;144657.78;;;5.29;100.00
3590;BME280;1809;48.470;9.226;2023-12-20T06:34:22;144651.75;;;5.26;100.00
3590;BME280;1809;48.470;9.226;2023-12-20T06:36:47;145022.34;;;5.37;100.00
3590;BME280;1809;48.470;9.226;2023-12-20T06:39:12;145013.88;;;5.34;100.00
3590;BME280;1809;48.470;9.226;2023-12-20T06:41:39;145009.06;;;5.32;100.00
3590;BME280;1809;48.470;9.226;2023-12-20T06:44:05;144646.94;;;5.24;100.00
3590;BME280;1809;48.470;9.226;2023-12-20T06:46:30;145016.31;;;5.35;100.00
3590;BME280;1809;48.470;9.226;2023-12-20T06:48:56;144656.59;;;5.28;100.00
3590;BME280;1809;48.470;9.226;2023-12-20T06:51:21;145018.69;;;5.36;100.00
3590;BME280;1809;48.470;9.226;2023-12-20T06:53:51;145017.53;;;5.35;100.00
3590;BME280;1809;48.470;9.226;2023-12-20T06:56:17;145374.91;;;5.41;100.00
3590;BME280;1809;48.470;9.226;2023-12-20T06:58:43;144658.97;;;5.29;100.00
3590;BME280;1809;48.470;9.226;2023-12-20T07:01:13;145005.41;;;5.30;100.00
3590;BME280;1809;48.470;9.226;2023-12-20T07:03:39;145032.00;;;5.41;100.00
3590;BME280;1809;48.470;9.226;2023-12-20T07:06:05;145028.34;;;5.40;100.00
3590;BME280;1809;48.470;9.226;2023-12-20T07:08:31;145035.59;;;5.43;100.00
3590;BME280;1809;48.470;9.226;2023-12-20T07:10:56;145032.00;;;5.41;100.00
3590;BME280;1809;48.470;9.226;2023-12-20T07:13:22;145039.25;;;5.45;100.00
3590;BME280;1809;48.470;9.226;2023-12-20T07:15:48;145045.28;;;5.47;100.00
3590;BME280;1809;48.470;9.226;2023-12-20T07:18:14;145045.28;;;5.47;100.00
3590;BME280;1809;48.470;9.226;2023-12-20T07:20:40;145054.91;;;5.51;100.00
3590;BME280;1809;48.470;9.226;2023-12-20T07:23:06;144702.34;;;5.48;100.00
3590;BME280;1809;48.470;9.226;2023-12-20T07:25:31;144699.94;;;5.47;100.00
3590;BME280;1809;48.470;9.226;2023-12-20T07:27:58;144707.16;;;5.50;100.00
3590;BME280;1809;48.470;9.226;2023-12-20T07:30:24;144710.75;;;5.51;100.00
3590;BME280;1809;48.470;9.226;2023-12-20T07:32:49;144719.19;;;5.55;100.00
3590;BME280;1809;48.470;9.226;2023-12-20T07:35:16;144730.03;;;5.59;100.00
3590;BME280;1809;48.470;9.226;2023-12-20T07:37:41;144732.47;;;5.60;100.00
3590;BME280;1809;48.470;9.226;2023-12-20T07:40:08;144377.44;;;5.56;100.00
3590;BME280;1809;48.470;9.226;2023-12-20T07:42:33;144388.28;;;5.60;100.00
3590;BME280;1809;48.470;9.226;2023-12-20T07:44:59;144399.06;;;5.65;100.00
3590;BME280;1809;48.470;9.226;2023-12-20T07:47:24;144052.47;;;5.64;100.00
3590;BME280;1809;48.470;9.226;2023-12-20T07:49:51;143701.19;;;5.61;100.00
3590;BME280;1809;48.470;9.226;2023-12-20T07:52:18;143715.53;;;5.67;100.00
3590;BME280;1809;48.470;9.226;2023-12-20T07:54:45;144072.91;;;5.72;100.00
3590;BME280;1809;48.470;9.226;2023-12-20T07:57:11;143364.25;;;5.64;100.00
3590;BME280;1809;48.470;9.226;2023-12-20T07:59:36;143380.97;;;5.71;100.00
3590;BME280;1809;48.470;9.226;2023-12-20T08:02:02;143376.22;;;5.69;100.00
3590;BME280;1809;48.470;9.226;2023-12-20T08:04:27;143385.75;;;5.73;100.00
3590;BME280;1809;48.470;9.226;2023-12-20T08:06:53;143039.25;;;5.72;100.00
3590;BME280;1809;48.470;9.226;2023-12-20T08:09:19;143034.47;;;5.70;100.00
3590;BME280;1809;48.470;9.226;2023-12-20T08:11:48;143051.13;;;5.77;100.00
3590;BME280;1809;48.470;9.226;2023-12-20T08:14:14;143063.06;;;5.82;100.00
3590;BME280;1809;48.470;9.226;2023-12-20T08:16:39;142714.13;;;5.80;100.00
3590;BME280;1809;48.470;9.226;2023-12-20T08:19:05;142367.72;;;5.79;100.00
3590;BME280;1809;48.470;9.226;2023-12-20T08:21:30;142021.28;;;5.78;100.00
3590;BME280;1809;48.470;9.226;2023-12-20T08:23:56;140640.75;;;5.76;100.00
3590;BME280;1809;48.470;9.226;2023-12-20T08:26:21;140303.88;;;5.79;100.00
3590;BME280;1809;48.470;9.226;2023-12-20T08:28:48;140320.22;;;5.86;100.00
3590;BME280;1809;48.470;9.226;2023-12-20T08:31:15;140317.88;;;5.85;100.00
3590;BME280;1809;48.470;9.226;2023-12-20T08:33:43;139978.66;;;5.87;100.00
3590;BME280;1809;48.470;9.226;2023-12-20T08:36:09;139978.66;;;5.87;100.00
3590;BME280;1809;48.470;9.226;2023-12-20T08:38:35;139988.00;;;5.91;100.00
3590;BME280;1809;48.470;9.226;2023-12-20T08:41:01;139641.75;;;5.90;100.00
3590;BME280;1809;48.470;9.226;2023-12-20T08:43:28;139652.22;;;5.94;100.00
3590;BME280;1809;48.470;9.226;2023-12-20T08:45:55;139311.78;;;5.96;100.00
3590;BME280;1809;48.470;9.226;2023-12-20T08:48:21;138946.00;;;5.86;100.00
3590;BME280;1809;48.470;9.226;2023-12-20T08:50:46;139325.69;;;6.02;100.00
3590;BME280;1809;48.470;9.226;2023-12-20T08:53:14;138977.19;;;6.00;100.00
3590;BME280;1809;48.470;9.226;2023-12-20T08:55:41;138994.50;;;6.08;100.00
3590;BME280;1809;48.470;9.226;2023-12-20T08:58:06;139353.47;;;6.14;100.00
3590;BME280;1809;48.470;9.226;2023-12-20T09:00:34;139377.81;;;6.25;100.00
3590;BME280;1809;48.470;9.226;2023-12-20T09:03:00;139018.75;;;6.18;100.00
3590;BME280;1809;48.470;9.226;2023-12-20T09:05:26;138656.41;;;6.10;100.00
3590;BME280;1809;48.470;9.226;2023-12-20T09:07:52;138311.38;;;6.10;100.00
3590;BME280;1809;48.470;9.226;2023-12-20T09:10:17;138337.78;;;6.21;100.00
3590;BME280;1809;48.470;9.226;2023-12-20T09:12:51;137640.84;;;6.17;100.00
3590;BME280;1809;48.470;9.226;2023-12-20T09:15:23;137310.72;;;6.23;100.00
3590;BME280;1809;48.470;9.226;2023-12-20T09:17:48;136987.38;;;6.32;100.00
3590;BME280;1809;48.470;9.226;2023-12-20T09:20:13;135951.47;;;6.30;100.00
3590;BME280;1809;48.470;9.226;2023-12-20T09:22:39;135265.19;;;6.31;100.00
3590;BME280;1809;48.470;9.226;2023-12-20T09:25:05;134208.72;;;6.19;100.00
3590;BME280;1809;48.470;9.226;2023-12-20T09:27:31;133857.44;;;6.16;100.00
3590;BME280;1809;48.470;9.226;2023-12-20T09:29:56;133835.19;;;6.06;100.00
3590;BME280;1809;48.470;9.226;2023-12-20T09:32:22;133096.50;;;5.82;100.00
3590;BME280;1809;48.470;9.226;2023-12-20T09:34:47;132015.53;;;5.58;100.00
3590;BME280;1809;48.470;9.226;2023-12-20T09:37:13;130585.44;;;5.31;100.00
3590;BME280;1809;48.470;9.226;2023-12-20T09:39:39;129172.16;;;5.11;100.00
3590;BME280;1809;48.470;9.226;2023-12-20T09:42:05;127759.28;;;4.90;100.00
3590;BME280;1809;48.470;9.226;2023-12-20T09:44:32;127427.69;;;4.95;100.00
3590;BME280;1809;48.470;9.226;2023-12-20T09:47:06;126022.72;;;4.77;100.00
3590;BME280;1809;48.470;9.226;2023-12-20T09:49:32;124296.00;;;4.69;100.00
3590;BME280;1809;48.470;9.226;2023-12-20T09:52:00;123278.19;;;4.72;100.00
3590;BME280;1809;48.470;9.226;2023-12-20T09:54:28;123287.34;;;4.77;100.00
3590;BME280;1809;48.470;9.226;2023-12-20T09:56:53;124009.81;;;4.96;100.00
3590;BME280;1809;48.470;9.226;2023-12-20T09:59:19;122954.91;;;4.81;100.00
3590;BME280;1809;48.470;9.226;2023-12-20T10:01:45;122267.59;;;4.79;100.00
3590;BME280;1809;48.470;9.226;2023-12-20T10:04:12;122272.69;;;4.82;100.00
3590;BME280;1809;48.470;9.226;2023-12-20T10:06:42;123316.00;;;4.91;100.00
3590;BME280;1809;48.470;9.226;2023-12-20T10:09:09;124027.31;;;5.05;100.00
3590;BME280;1809;48.470;9.226;2023-12-20T10:11:36;124734.97;;;5.16;100.00
3590;BME280;1809;48.470;9.226;2023-12-20T10:14:02;125448.16;;;5.30;100.00
3590;BME280;1809;48.470;9.226;2023-12-20T10:16:29;125120.56;;;5.37;100.00
3590;BME280;1809;48.470;9.226;2023-12-20T10:18:54;123403.97;;;5.34;100.00
3590;BME280;1809;48.470;9.226;2023-12-20T10:21:21;122028.19;;;5.30;100.00
3590;BME280;1809;48.470;9.226;2023-12-20T10:23:48;121340.56;;;5.28;100.00
3590;BME280;1809;48.470;9.226;2023-12-20T10:26:22;121356.66;;;5.36;100.00
3590;BME280;1809;48.470;9.226;2023-12-20T10:28:54;121362.69;;;5.39;100.00
3590;BME280;1809;48.470;9.226;2023-12-20T10:31:34;120663.13;;;5.31;100.00
3590;BME280;1809;48.470;9.226;2023-12-20T10:34:02;120661.13;;;5.30;100.00
3590;BME280;1809;48.470;9.226;2023-12-20T10:36:29;120315.47;;;5.28;100.00
3590;BME280;1809;48.470;9.226;2023-12-20T10:38:56;120653.09;;;5.26;100.00
3590;BME280;1809;48.470;9.226;2023-12-20T10:41:27;121686.38;;;5.30;100.00
3590;BME280;1809;48.470;9.226;2023-12-20T10:46:23;120630.13;;;5.15;100.00
3590;BME280;1809;48.470;9.226;2023-12-20T10:48:53;119953.94;;;5.18;100.00
3590;BME280;1809;48.470;9.226;2023-12-20T10:51:20;119619.31;;;5.22;100.00
3590;BME280;1809;48.470;9.226;2023-12-20T10:53:50;117543.34;;;5.08;100.00
3590;BME280;1809;48.470;9.226;2023-12-20T10:56:19;117222.47;;;5.18;100.00
3590;BME280;1809;48.470;9.226;2023-12-20T10:58:47;116541.88;;;5.19;100.00
3590;BME280;1809;48.470;9.226;2023-12-20T11:01:16;115192.44;;;5.27;100.00
3590;BME280;1809;48.470;9.226;2023-12-20T11:03:53;114172.91;;;5.29;100.00
3590;BME280;1809;48.470;9.226;2023-12-20T11:14:34;104636.09;;;5.29;100.00
3590;BME280;1809;48.470;9.226;2023-12-20T11:17:14;101890.84;;;5.14;100.00
3590;BME280;1809;48.470;9.226;2023-12-20T11:22:34;90690.06;;;5.10;100.00
3590;BME280;1809;48.470;9.226;2023-12-20T11:25:08;78864.13;;;5.16;100.00
3590;BME280;1809;48.470;9.226;2023-12-20T11:27:35;70768.69;;;5.12;100.00
3590;BME280;1809;48.470;9.226;2023-12-20T11:30:03;61020.16;;;5.15;100.00
3590;BME280;1809;48.470;9.226;2023-12-20T11:32:34;50627.44;;;5.15;100.00
3590;BME280;1809;48.470;9.226;2023-12-20T11:35:16;38932.09;;;5.16;100.00
3590;BME280;1809;48.470;9.226;2023-12-20T11:37:41;31271.91;;;5.24;100.00
3590;BME280;1809;48.470;9.226;2023-12-20T11:40:11;16991.75;;;5.34;100.00
3590;BME280;1809;48.470;9.226;2023-12-20T11:42:45;7707.00;;;5.34;100.00
3590;BME280;1809;48.470;9.226;2023-12-20T11:45:15;4260.84;;;5.30;100.00
3590;BME280;1809;48.470;9.226;2023-12-20T11:47:43;15001.44;;;5.26;100.00
3590;BME280;1809;48.470;9.226;2023-12-20T11:50:09;23629.06;;;5.36;100.00
3590;BME280;1809;48.470;9.226;2023-12-20T11:52:35;28290.69;;;5.54;100.00
3590;BME280;1809;48.470;9.226;2023-12-20T11:55:00;24304.06;;;5.64;100.00
3590;BME280;1809;48.470;9.226;2023-12-20T11:57:25;17002.06;;;5.74;100.00
3590;BME280;1809;48.470;9.226;2023-12-20T11:59:51;14018.38;;;5.76;100.00
3590;BME280;1809;48.470;9.226;2023-12-20T12:02:16;7727.94;;;5.83;100.00
3590;BME280;1809;48.470;9.226;2023-12-20T12:04:42;-14726.66;;;5.77;100.00
3590;BME280;1809;48.470;9.226;2023-12-20T12:07:07;-16327.59;;;5.69;100.00
3590;BME280;1809;48.470;9.226;2023-12-20T12:09:33;-16328.56;;;5.72;100.00
3590;BME280;1809;48.470;9.226;2023-12-20T12:11:59;-16326.03;;;5.63;100.00
3590;BME280;1809;48.470;9.226;2023-12-20T12:14:24;-16324.63;;;5.58;100.00
3590;BME280;1809;48.470;9.226;2023-12-20T12:16:50;-16323.09;;;5.53;100.00
3590;BME280;1809;48.470;9.226;2023-12-20T12:19:26;-16326.47;;;5.65;100.00
3590;BME280;1809;48.470;9.226;2023-12-20T12:22:07;-16321.53;;;5.47;100.00
3590;BME280;1809;48.470;9.226;2023-12-20T12:24:36;-16319.16;;;5.38;100.00
3590;BME280;1809;48.470;9.226;2023-12-20T12:27:03;-16320.25;;;5.42;100.00
3590;BME280;1809;48.470;9.226;2023-12-20T12:29:29;-16320.84;;;5.45;100.00
3590;BME280;1809;48.470;9.226;2023-12-20T12:31:55;-16317.72;;;5.33;100.00
3590;BME280;1809;48.470;9.226;2023-12-20T12:34:20;-16318.84;;;5.37;100.00
3590;BME280;1809;48.470;9.226;2023-12-20T12:36:45;-16315.47;;;5.25;100.00
3590;BME280;1809;48.470;9.226;2023-12-20T12:39:18;-16315.75;;;5.26;100.00
3590;BME280;1809;48.470;9.226;2023-12-20T12:41:43;-16317.44;;;5.32;100.00
3590;BME280;1809;48.470;9.226;2023-12-20T12:44:09;-16318.00;;;5.34;100.00
3590;BME280;1809;48.470;9.226;2023-12-20T12:46:34;-16318.16;;;5.35;100.00
3590;BME280;1809;48.470;9.226;2023-12-20T12:49:00;-16319.56;;;5.40;100.00
3590;BME280;1809;48.470;9.226;2023-12-20T12:51:25;-16320.13;;;5.42;100.00
3590;BME280;1809;48.470;9.226;2023-12-20T12:53:51;-16318.00;;;5.34;100.00
3590;BME280;1809;48.470;9.226;2023-12-20T12:56:17;-16321.25;;;5.46;100.00
3590;BME280;1809;48.470;9.226;2023-12-20T12:58:42;-16321.94;;;5.49;100.00
3590;BME280;1809;48.470;9.226;2023-12-20T13:01:07;-16321.41;;;5.47;100.00
3590;BME280;1809;48.470;9.226;2023-12-20T13:03:33;-16319.41;;;5.39;100.00
3590;BME280;1809;48.470;9.226;2023-12-20T13:05:59;-16318.16;;;5.35;100.00
3590;BME280;1809;48.470;9.226;2023-12-20T13:08:25;-16317.16;;;5.31;100.00
3590;BME280;1809;48.470;9.226;2023-12-20T13:10:50;-16317.16;;;5.31;100.00
3590;BME280;1809;48.470;9.226;2023-12-20T13:13:16;-16319.28;;;5.39;100.00
3590;BME280;1809;48.470;9.226;2023-12-20T13:15:42;-16318.31;;;5.35;100.00
3590;BME280;1809;48.470;9.226;2023-12-20T13:18:07;-16322.53;;;5.51;100.00
3590;BME280;1809;48.470;9.226;2023-12-20T13:29:51;-16323.38;;;5.54;100.00